createdAt,value
2022-08-28T00:00:46.836Z,17.65
2022-08-28T00:01:46.800Z,17.59
2022-08-28T00:02:46.866Z,17.49
2022-08-28T00:03:46.786Z,17.56
2022-08-28T00:04:46.944Z,17.60
2022-08-28T00:05:46.816Z,17.64
2022-08-28T00:06:46.765Z,17.64
2022-08-28T00:07:47.955Z,17.60
2022-08-28T00:08:47.750Z,17.57
2022-08-28T00:09:46.734Z,17.56
2022-08-28T00:10:46.755Z,17.52
2022-08-28T00:11:46.736Z,17.56
2022-08-28T00:12:46.710Z,17.52
2022-08-28T00:13:46.703Z,17.52
2022-08-28T00:14:46.712Z,17.59
2022-08-28T00:15:46.761Z,17.63
2022-08-28T00:16:46.682Z,17.64
2022-08-28T00:17:46.680Z,17.57
2022-08-28T00:18:47.102Z,17.63
2022-08-28T00:19:46.659Z,17.67
2022-08-28T00:20:46.676Z,17.68
2022-08-28T00:21:46.646Z,17.67
2022-08-28T00:22:46.640Z,17.60
2022-08-28T00:23:46.627Z,17.57
2022-08-28T00:24:46.623Z,17.63
2022-08-28T00:25:46.641Z,17.68
2022-08-28T00:26:46.619Z,17.57
2022-08-28T00:27:46.598Z,17.60
2022-08-28T00:28:46.589Z,17.63
2022-08-28T00:29:46.580Z,17.70
2022-08-28T00:30:46.606Z,17.76
2022-08-28T00:31:46.618Z,17.71
2022-08-28T00:32:46.557Z,17.71
2022-08-28T00:33:48.199Z,17.79
2022-08-28T00:34:47.543Z,17.76
2022-08-28T00:35:46.559Z,17.71
2022-08-28T00:36:46.534Z,17.74
2022-08-28T00:37:46.531Z,17.67
2022-08-28T00:38:46.515Z,17.57
2022-08-28T00:39:46.517Z,17.70
2022-08-28T00:40:46.556Z,17.57
2022-08-28T00:41:46.492Z,17.72
2022-08-28T00:42:46.484Z,17.68
2022-08-28T00:43:46.474Z,17.64
2022-08-28T00:44:46.475Z,17.65
2022-08-28T00:45:46.491Z,17.70
2022-08-28T00:46:46.511Z,17.68
2022-08-28T00:47:46.447Z,17.68
2022-08-28T00:48:46.438Z,17.59
2022-08-28T00:49:46.429Z,17.54
2022-08-28T00:50:46.420Z,17.59
2022-08-28T00:51:46.439Z,17.57
2022-08-28T00:52:46.403Z,17.56
2022-08-28T00:53:46.400Z,17.63
2022-08-28T00:54:58.936Z,17.59
2022-08-28T00:55:47.375Z,17.57
2022-08-28T00:56:46.394Z,17.56
2022-08-28T00:57:46.366Z,17.46
2022-08-28T00:58:46.355Z,17.36
2022-08-28T00:59:46.345Z,17.45
2022-08-28T01:00:46.340Z,17.57
2022-08-28T01:01:46.554Z,17.57
2022-08-28T01:02:46.394Z,17.60
2022-08-28T01:03:46.316Z,17.48
2022-08-28T01:04:46.308Z,17.41
2022-08-28T01:05:46.301Z,17.33
2022-08-28T01:06:46.318Z,17.24
2022-08-28T01:07:46.282Z,17.33
2022-08-28T01:08:46.280Z,17.29
2022-08-28T01:09:46.275Z,17.31
2022-08-28T01:10:46.261Z,17.44
2022-08-28T01:11:46.278Z,17.45
2022-08-28T01:12:46.249Z,17.38
2022-08-28T01:13:46.238Z,17.41
2022-08-28T01:14:46.229Z,17.48
2022-08-28T01:15:46.248Z,17.48
2022-08-28T01:16:46.240Z,17.44
2022-08-28T01:17:46.207Z,17.33
2022-08-28T01:18:46.194Z,17.29
2022-08-28T01:19:46.190Z,17.41
2022-08-28T01:20:46.182Z,17.41
2022-08-28T01:21:46.198Z,17.34
2022-08-28T01:22:46.168Z,17.38
2022-08-28T01:23:46.155Z,17.46
2022-08-28T01:24:46.154Z,17.52
2022-08-28T01:25:46.132Z,17.46
2022-08-28T01:26:47.164Z,17.54
2022-08-28T01:27:46.121Z,17.60
2022-08-28T01:28:46.116Z,17.44
2022-08-28T01:29:48.012Z,17.38
2022-08-28T01:30:46.153Z,17.38
2022-08-28T01:31:46.124Z,17.24
2022-08-28T01:32:46.085Z,17.16
2022-08-28T01:33:46.078Z,17.15
2022-08-28T01:34:46.072Z,17.01
2022-08-28T01:35:46.063Z,17.04
2022-08-28T01:36:46.090Z,17.16
2022-08-28T01:37:46.047Z,17.26
2022-08-28T01:38:46.036Z,17.16
2022-08-28T01:39:46.034Z,17.24
2022-08-28T01:40:46.022Z,17.19
2022-08-28T01:41:47.038Z,17.20
2022-08-28T01:42:46.012Z,17.26
2022-08-28T01:43:46.002Z,17.16
2022-08-28T01:44:45.994Z,17.20
2022-08-28T01:45:45.988Z,17.24
2022-08-28T01:46:46.111Z,17.23
2022-08-28T01:47:45.972Z,17.26
2022-08-28T01:48:45.967Z,17.31
2022-08-28T01:49:45.981Z,17.26
2022-08-28T01:50:45.946Z,17.29
2022-08-28T01:51:45.971Z,17.29
2022-08-28T01:52:45.934Z,17.23
2022-08-28T01:53:46.632Z,17.24
2022-08-28T01:54:45.921Z,17.41
2022-08-28T01:55:45.910Z,17.29
2022-08-28T01:56:45.931Z,17.39
2022-08-28T01:58:18.401Z,17.29
2022-08-28T01:58:45.891Z,17.41
2022-08-28T01:59:45.882Z,17.46
2022-08-28T02:00:45.869Z,17.52
2022-08-28T02:01:45.955Z,17.44
2022-08-28T02:02:45.860Z,17.51
2022-08-28T02:03:45.944Z,17.27
2022-08-28T02:04:48.158Z,17.22
2022-08-28T02:05:46.840Z,17.26
2022-08-28T02:06:45.870Z,17.22
2022-08-28T02:07:45.823Z,17.23
2022-08-28T02:08:45.805Z,17.24
2022-08-28T02:09:46.816Z,17.33
2022-08-28T02:10:45.801Z,17.19
2022-08-28T02:11:46.812Z,17.23
2022-08-28T02:12:45.790Z,17.29
2022-08-28T02:13:45.778Z,17.24
2022-08-28T02:14:46.785Z,17.16
2022-08-28T02:15:45.906Z,17.16
2022-08-28T02:16:45.793Z,17.23
2022-08-28T02:17:45.747Z,17.38
2022-08-28T02:18:45.740Z,17.30
2022-08-28T02:19:45.737Z,17.36
2022-08-28T02:20:45.719Z,17.39
2022-08-28T02:21:45.731Z,17.45
2022-08-28T02:22:45.736Z,17.49
2022-08-28T02:23:45.710Z,17.56
2022-08-28T02:24:45.696Z,17.54
2022-08-28T02:25:45.692Z,17.48
2022-08-28T02:26:45.680Z,17.31
2022-08-28T02:27:45.703Z,17.33
2022-08-28T02:28:45.665Z,17.30
2022-08-28T02:29:45.663Z,17.36
2022-08-28T02:30:45.690Z,17.36
2022-08-28T02:31:45.654Z,17.31
2022-08-28T02:32:45.664Z,17.22
2022-08-28T02:33:45.629Z,17.38
2022-08-28T02:34:45.623Z,17.26
2022-08-28T02:35:45.609Z,17.42
2022-08-28T02:36:45.607Z,17.39
2022-08-28T02:37:45.638Z,17.52
2022-08-28T02:38:45.593Z,17.56
2022-08-28T02:39:45.585Z,17.56
2022-08-28T02:40:45.579Z,17.64
2022-08-28T02:41:45.568Z,17.67
2022-08-28T02:42:45.583Z,17.64
2022-08-28T02:43:45.568Z,17.67
2022-08-28T02:44:45.544Z,17.70
2022-08-28T02:45:45.569Z,17.67
2022-08-28T02:46:45.534Z,17.68
2022-08-28T02:47:45.549Z,17.65
2022-08-28T02:48:45.510Z,17.59
2022-08-28T02:49:45.505Z,17.65
2022-08-28T02:50:45.495Z,17.54
2022-08-28T02:51:45.494Z,17.46
2022-08-28T02:52:45.518Z,17.44
2022-08-28T02:53:45.477Z,17.54
2022-08-28T02:54:45.474Z,17.39
2022-08-28T02:55:45.460Z,17.42
2022-08-28T02:56:45.491Z,17.39
2022-08-28T02:57:45.464Z,17.42
2022-08-28T02:58:46.442Z,17.44
2022-08-28T02:59:45.432Z,17.52
2022-08-28T03:00:45.421Z,17.48
2022-08-28T03:01:45.458Z,17.59
2022-08-28T03:02:45.603Z,17.54
2022-08-28T03:03:45.396Z,17.51
2022-08-28T03:04:45.388Z,17.60
2022-08-28T03:05:45.387Z,17.68
2022-08-28T03:06:45.374Z,17.59
2022-08-28T03:07:45.396Z,17.60
2022-08-28T03:08:45.358Z,17.63
2022-08-28T03:09:45.345Z,17.76
2022-08-28T03:10:45.346Z,17.64
2022-08-28T03:11:45.333Z,17.67
2022-08-28T03:12:45.353Z,17.67
2022-08-28T03:13:45.316Z,17.67
2022-08-28T03:14:45.309Z,17.74
2022-08-28T03:15:45.311Z,17.71
2022-08-28T03:16:45.327Z,17.65
2022-08-28T03:17:45.312Z,17.71
2022-08-28T03:18:45.296Z,17.74
2022-08-28T03:19:45.282Z,17.83
2022-08-28T03:20:45.264Z,17.76
2022-08-28T03:21:45.258Z,17.72
2022-08-28T03:22:45.276Z,17.71
2022-08-28T03:23:45.245Z,17.79
2022-08-28T03:24:45.241Z,17.74
2022-08-28T03:25:45.235Z,17.60
2022-08-28T03:26:45.223Z,17.64
2022-08-28T03:27:45.252Z,17.63
2022-08-28T03:28:45.208Z,17.63
2022-08-28T03:29:45.203Z,17.59
2022-08-28T03:30:45.270Z,17.57
2022-08-28T03:31:45.178Z,17.65
2022-08-28T03:32:45.173Z,17.67
2022-08-28T03:33:45.190Z,17.67
2022-08-28T03:34:45.152Z,17.67
2022-08-28T03:35:45.151Z,17.68
2022-08-28T03:36:45.138Z,17.74
2022-08-28T03:37:45.162Z,17.80
2022-08-28T03:38:45.128Z,17.71
2022-08-28T03:39:45.126Z,17.78
2022-08-28T03:40:45.112Z,17.76
2022-08-28T03:41:45.103Z,17.76
2022-08-28T03:42:51.312Z,17.74
2022-08-28T03:43:46.095Z,17.82
2022-08-28T03:44:45.085Z,17.74
2022-08-28T03:45:45.125Z,17.76
2022-08-28T03:46:45.072Z,17.78
2022-08-28T03:47:45.079Z,17.71
2022-08-28T03:48:45.093Z,17.71
2022-08-28T03:49:45.042Z,17.67
2022-08-28T03:50:45.036Z,17.56
2022-08-28T03:51:45.025Z,17.64
2022-08-28T03:52:45.052Z,17.63
2022-08-28T03:53:45.018Z,17.71
2022-08-28T03:54:45.013Z,17.56
2022-08-28T03:55:44.991Z,17.52
2022-08-28T03:56:44.990Z,17.49
2022-08-28T03:57:45.005Z,17.44
2022-08-28T03:58:44.978Z,17.45
2022-08-28T03:59:44.963Z,17.46
2022-08-28T04:00:44.958Z,17.49
2022-08-28T04:01:45.004Z,17.48
2022-08-28T04:02:44.979Z,17.36
2022-08-28T04:03:45.000Z,17.29
2022-08-28T04:04:44.929Z,17.26
2022-08-28T04:05:44.917Z,17.34
2022-08-28T04:06:44.911Z,17.29
2022-08-28T04:07:44.935Z,17.22
2022-08-28T04:08:44.902Z,17.22
2022-08-28T04:09:44.883Z,17.16
2022-08-28T04:10:44.881Z,17.15
2022-08-28T04:11:44.869Z,17.20
2022-08-28T04:12:44.894Z,17.14
2022-08-28T04:13:44.851Z,17.09
2022-08-28T04:14:44.849Z,17.20
2022-08-28T04:15:44.838Z,17.09
2022-08-28T04:16:44.877Z,17.08
2022-08-28T04:17:44.866Z,16.97
2022-08-28T04:18:44.830Z,17.09
2022-08-28T04:19:44.815Z,17.08
2022-08-28T04:20:46.421Z,17.12
2022-08-28T04:21:44.806Z,17.04
2022-08-28T04:22:45.255Z,17.06
2022-08-28T04:23:44.782Z,17.05
2022-08-28T04:24:44.775Z,17.08
2022-08-28T04:25:44.764Z,16.99
2022-08-28T04:26:44.757Z,17.06
2022-08-28T04:27:44.779Z,17.04
2022-08-28T04:28:44.743Z,17.04
2022-08-28T04:29:44.737Z,16.96
2022-08-28T04:30:44.729Z,17.05
2022-08-28T04:31:44.746Z,17.02
2022-08-28T04:32:44.741Z,17.06
2022-08-28T04:33:44.707Z,17.05
2022-08-28T04:34:44.689Z,17.06
2022-08-28T04:35:44.691Z,16.99
2022-08-28T04:36:44.681Z,16.97
2022-08-28T04:37:44.674Z,17.06
2022-08-28T04:38:44.687Z,16.97
2022-08-28T04:39:44.657Z,16.99
2022-08-28T04:40:44.654Z,17.04
2022-08-28T04:41:44.635Z,17.05
2022-08-28T04:42:44.645Z,17.06
2022-08-28T04:43:44.649Z,17.01
2022-08-28T04:44:44.633Z,17.06
2022-08-28T04:45:44.678Z,16.97
2022-08-28T04:46:44.604Z,16.99
2022-08-28T04:47:44.593Z,16.99
2022-08-28T04:48:44.616Z,16.94
2022-08-28T04:49:44.585Z,16.96
2022-08-28T04:50:44.572Z,16.99
2022-08-28T04:51:44.565Z,16.90
2022-08-28T04:52:44.556Z,16.89
2022-08-28T04:53:44.576Z,16.97
2022-08-28T04:54:44.547Z,17.05
2022-08-28T04:55:53.919Z,16.91
2022-08-28T04:56:45.544Z,16.81
2022-08-28T04:57:44.518Z,16.87
2022-08-28T04:58:44.548Z,16.89
2022-08-28T04:59:44.502Z,16.84
2022-08-28T05:00:44.548Z,16.83
2022-08-28T05:01:44.499Z,16.89
2022-08-28T05:02:44.480Z,16.91
2022-08-28T05:03:44.497Z,16.84
2022-08-28T05:04:44.467Z,16.93
2022-08-28T05:05:44.462Z,17.06
2022-08-28T05:06:44.452Z,17.05
2022-08-28T05:07:45.012Z,17.02
2022-08-28T05:08:44.466Z,16.99
2022-08-28T05:09:44.431Z,17.12
2022-08-28T05:10:44.426Z,17.12
2022-08-28T05:11:44.415Z,17.14
2022-08-28T05:12:44.402Z,17.11
2022-08-28T05:13:44.426Z,17.04
2022-08-28T05:14:44.395Z,16.99
2022-08-28T05:15:44.385Z,16.94
2022-08-28T05:16:44.461Z,16.96
2022-08-28T05:17:44.373Z,16.96
2022-08-28T05:18:44.386Z,16.93
2022-08-28T05:19:44.358Z,17.04
2022-08-28T05:20:44.338Z,17.08
2022-08-28T05:21:45.340Z,17.14
2022-08-28T05:22:44.338Z,17.09
2022-08-28T05:23:44.354Z,17.19
2022-08-28T05:24:44.321Z,17.23
2022-08-28T05:25:44.316Z,17.38
2022-08-28T05:26:44.303Z,17.54
2022-08-28T05:27:44.311Z,17.46
2022-08-28T05:28:44.312Z,17.63
2022-08-28T05:29:44.277Z,17.80
2022-08-28T05:30:44.266Z,17.71
2022-08-28T05:31:44.304Z,17.68
2022-08-28T05:32:44.257Z,17.56
2022-08-28T05:33:44.275Z,17.41
2022-08-28T05:34:44.236Z,17.42
2022-08-28T05:35:44.229Z,17.46
2022-08-28T05:36:44.217Z,17.57
2022-08-28T05:37:44.213Z,17.59
2022-08-28T05:38:44.233Z,17.33
2022-08-28T05:39:44.216Z,17.22
2022-08-28T05:40:44.224Z,17.09
2022-08-28T05:41:44.202Z,17.16
2022-08-28T05:42:44.174Z,17.22
2022-08-28T05:43:44.201Z,17.27
2022-08-28T05:44:44.156Z,17.24
2022-08-28T05:45:44.222Z,17.31
2022-08-28T05:46:44.166Z,17.60
2022-08-28T05:47:44.138Z,17.54
2022-08-28T05:48:44.126Z,17.46
2022-08-28T05:49:44.434Z,17.42
2022-08-28T05:50:47.275Z,17.42
2022-08-28T05:51:44.103Z,17.41
2022-08-28T05:52:44.102Z,17.54
2022-08-28T05:53:44.087Z,17.59
2022-08-28T05:54:44.431Z,17.56
2022-08-28T05:55:44.073Z,17.60
2022-08-28T05:56:44.075Z,17.56
2022-08-28T05:57:44.058Z,17.52
2022-08-28T05:58:44.056Z,17.57
2022-08-28T05:59:44.072Z,17.57
2022-08-28T06:00:44.040Z,17.56
2022-08-28T06:01:44.113Z,17.67
2022-08-28T06:02:44.026Z,17.59
2022-08-28T06:03:44.047Z,17.80
2022-08-28T06:04:44.035Z,17.87
2022-08-28T06:05:43.999Z,18.13
2022-08-28T06:06:43.999Z,18.00
2022-08-28T06:07:43.983Z,18.18
2022-08-28T06:08:58.392Z,18.13
2022-08-28T06:09:44.999Z,18.11
2022-08-28T06:10:43.965Z,18.08
2022-08-28T06:11:46.124Z,17.89
2022-08-28T06:12:43.953Z,18.04
2022-08-28T06:13:43.950Z,18.11
2022-08-28T06:14:43.967Z,17.74
2022-08-28T06:15:44.028Z,17.71
2022-08-28T06:16:43.924Z,17.78
2022-08-28T06:17:43.919Z,17.76
2022-08-28T06:18:43.918Z,17.79
2022-08-28T06:19:43.928Z,17.68
2022-08-28T06:20:43.892Z,17.67
2022-08-28T06:21:43.889Z,17.89
2022-08-28T06:22:43.875Z,17.89
2022-08-28T06:23:43.873Z,17.80
2022-08-28T06:24:43.895Z,17.80
2022-08-28T06:25:43.873Z,17.71
2022-08-28T06:26:43.849Z,17.79
2022-08-28T06:27:43.839Z,17.90
2022-08-28T06:28:43.843Z,17.86
2022-08-28T06:29:43.846Z,18.19
2022-08-28T06:31:02.714Z,17.90
2022-08-28T06:31:45.843Z,17.86
2022-08-28T06:32:43.803Z,17.72
2022-08-28T06:33:43.791Z,17.80
2022-08-28T06:34:43.826Z,17.83
2022-08-28T06:35:43.787Z,17.92
2022-08-28T06:36:43.770Z,17.98
2022-08-28T06:37:43.761Z,17.95
2022-08-28T06:38:43.762Z,17.92
2022-08-28T06:39:43.773Z,17.79
2022-08-28T06:40:43.740Z,17.78
2022-08-28T06:41:43.732Z,17.89
2022-08-28T06:42:43.743Z,17.71
2022-08-28T06:43:43.717Z,17.54
2022-08-28T06:44:43.744Z,17.38
2022-08-28T06:45:43.718Z,17.39
2022-08-28T06:46:43.700Z,17.63
2022-08-28T06:47:43.701Z,17.60
2022-08-28T06:48:43.678Z,17.68
2022-08-28T06:49:43.701Z,17.78
2022-08-28T06:50:43.666Z,17.34
2022-08-28T06:51:43.660Z,17.24
2022-08-28T06:52:43.645Z,17.30
2022-08-28T06:53:43.646Z,17.31
2022-08-28T06:54:55.371Z,17.27
2022-08-28T06:55:44.627Z,17.16
2022-08-28T06:56:43.625Z,17.26
2022-08-28T06:57:43.616Z,17.44
2022-08-28T06:58:50.150Z,17.41
2022-08-28T06:59:44.626Z,17.67
2022-08-28T07:00:43.593Z,17.64
2022-08-28T07:01:43.642Z,17.74
2022-08-28T07:02:43.601Z,17.56
2022-08-28T07:03:44.369Z,17.52
2022-08-28T07:04:43.588Z,17.63
2022-08-28T07:05:43.551Z,17.42
2022-08-28T07:06:43.547Z,17.46
2022-08-28T07:07:43.545Z,17.36
2022-08-28T07:08:43.533Z,17.33
2022-08-28T07:09:43.562Z,17.23
2022-08-28T07:10:43.526Z,17.38
2022-08-28T07:11:43.516Z,17.31
2022-08-28T07:12:43.497Z,17.36
2022-08-28T07:13:43.503Z,17.48
2022-08-28T07:14:43.527Z,17.63
2022-08-28T07:15:43.522Z,17.54
2022-08-28T07:16:43.471Z,17.36
2022-08-28T07:17:43.475Z,17.29
2022-08-28T07:18:43.466Z,17.34
2022-08-28T07:19:43.456Z,17.42
2022-08-28T07:20:43.467Z,17.70
2022-08-28T07:21:43.539Z,17.79
2022-08-28T07:22:43.417Z,17.67
2022-08-28T07:23:43.419Z,17.64
2022-08-28T07:24:43.414Z,17.65
2022-08-28T07:25:43.435Z,17.64
2022-08-28T07:26:43.400Z,17.64
2022-08-28T07:27:43.397Z,17.49
2022-08-28T07:28:43.386Z,17.48
2022-08-28T07:29:43.400Z,17.56
2022-08-28T07:30:43.469Z,17.48
2022-08-28T07:31:43.359Z,17.44
2022-08-28T07:32:43.354Z,17.54
2022-08-28T07:33:43.345Z,17.54
2022-08-28T07:34:43.386Z,17.64
2022-08-28T07:35:43.334Z,17.64
2022-08-28T07:36:43.329Z,17.56
2022-08-28T07:37:43.308Z,17.44
2022-08-28T07:38:43.322Z,17.30
2022-08-28T07:39:43.326Z,17.36
2022-08-28T07:40:43.284Z,17.42
2022-08-28T07:41:43.329Z,17.49
2022-08-28T07:42:43.267Z,17.38
2022-08-28T07:43:43.260Z,17.33
2022-08-28T07:44:43.278Z,17.38
2022-08-28T07:45:43.306Z,17.31
2022-08-28T07:46:43.242Z,17.24
2022-08-28T07:47:43.237Z,17.38
2022-08-28T07:48:43.224Z,17.48
2022-08-28T07:49:43.245Z,17.67
2022-08-28T07:50:43.227Z,17.63
2022-08-28T07:51:43.259Z,17.48
2022-08-28T07:52:43.232Z,17.52
2022-08-28T07:53:43.196Z,17.64
2022-08-28T07:54:43.203Z,17.67
2022-08-28T07:55:43.172Z,17.78
2022-08-28T07:56:43.161Z,17.71
2022-08-28T07:58:16.048Z,17.63
2022-08-28T07:58:43.144Z,17.65
2022-08-28T07:59:43.171Z,17.74
2022-08-28T08:00:43.148Z,17.85
2022-08-28T08:01:43.203Z,17.97
2022-08-28T08:02:43.128Z,18.04
2022-08-28T08:03:43.215Z,18.13
2022-08-28T08:04:43.135Z,18.11
2022-08-28T08:05:43.094Z,18.19
2022-08-28T08:06:43.082Z,18.31
2022-08-28T08:07:43.907Z,18.45
2022-08-28T08:08:43.069Z,18.55
2022-08-28T08:09:43.096Z,18.35
2022-08-28T08:10:43.056Z,18.38
2022-08-28T08:11:43.048Z,18.33
2022-08-28T08:12:43.034Z,18.07
2022-08-28T08:13:43.031Z,18.15
2022-08-28T08:14:43.052Z,18.07
2022-08-28T08:15:44.000Z,18.11
2022-08-28T08:16:43.006Z,18.22
2022-08-28T08:17:43.003Z,18.33
2022-08-28T08:18:42.990Z,18.44
2022-08-28T08:19:43.030Z,18.55
2022-08-28T08:20:42.977Z,18.70
2022-08-28T08:21:42.968Z,18.74
2022-08-28T08:22:42.962Z,18.59
2022-08-28T08:23:42.964Z,18.74
2022-08-28T08:24:42.978Z,18.98
2022-08-28T08:25:42.932Z,19.04
2022-08-28T08:26:42.929Z,18.99
2022-08-28T08:27:43.235Z,19.15
2022-08-28T08:28:43.951Z,19.26
2022-08-28T08:29:42.904Z,19.24
2022-08-28T08:30:42.947Z,18.84
2022-08-28T08:31:42.891Z,18.55
2022-08-28T08:32:43.022Z,18.50
2022-08-28T08:33:42.877Z,18.65
2022-08-28T08:34:42.866Z,18.47
2022-08-28T08:35:42.883Z,18.35
2022-08-28T08:36:42.848Z,18.35
2022-08-28T08:37:42.841Z,18.60
2022-08-28T08:38:42.832Z,18.60
2022-08-28T08:39:42.823Z,18.49
2022-08-28T08:40:43.742Z,18.53
2022-08-28T08:41:42.810Z,18.38
2022-08-28T08:42:42.806Z,18.71
2022-08-28T08:43:42.798Z,18.86
2022-08-28T08:44:42.792Z,18.86
2022-08-28T08:45:42.802Z,18.96
2022-08-28T08:46:42.845Z,19.02
2022-08-28T08:47:42.767Z,19.08
2022-08-28T08:48:42.759Z,18.93
2022-08-28T08:49:42.755Z,19.18
2022-08-28T08:50:42.791Z,19.18
2022-08-28T08:51:42.739Z,19.34
2022-08-28T08:52:42.739Z,19.29
2022-08-28T08:53:42.753Z,19.14
2022-08-28T08:54:42.739Z,19.09
2022-08-28T08:55:42.737Z,19.07
2022-08-28T08:56:42.713Z,19.22
2022-08-28T08:57:42.691Z,19.34
2022-08-28T08:58:42.701Z,19.34
2022-08-28T08:59:42.678Z,19.22
2022-08-28T09:00:42.691Z,19.39
2022-08-28T09:01:42.697Z,19.34
2022-08-28T09:02:42.794Z,19.36
2022-08-28T09:03:44.266Z,19.49
2022-08-28T09:04:42.635Z,19.59
2022-08-28T09:05:42.650Z,19.59
2022-08-28T09:06:42.617Z,19.36
2022-08-28T09:07:42.624Z,19.26
2022-08-28T09:08:42.605Z,19.24
2022-08-28T09:09:42.605Z,18.99
2022-08-28T09:10:42.628Z,18.86
2022-08-28T09:11:42.583Z,19.29
2022-08-28T09:12:42.581Z,19.48
2022-08-28T09:13:42.564Z,19.31
2022-08-28T09:14:42.561Z,19.41
2022-08-28T09:15:42.776Z,19.39
2022-08-28T09:16:42.546Z,19.16
2022-08-28T09:17:42.627Z,19.24
2022-08-28T09:18:42.528Z,19.15
2022-08-28T09:19:42.554Z,19.54
2022-08-28T09:20:42.515Z,19.91
2022-08-28T09:21:42.507Z,19.82
2022-08-28T09:22:42.500Z,19.36
2022-08-28T09:23:42.489Z,19.63
2022-08-28T09:24:42.512Z,19.44
2022-08-28T09:25:42.475Z,19.34
2022-08-28T09:26:42.463Z,19.36
2022-08-28T09:27:42.567Z,19.34
2022-08-28T09:28:42.450Z,19.58
2022-08-28T09:29:42.442Z,19.73
2022-08-28T09:30:42.530Z,19.88
2022-08-28T09:31:42.435Z,20.03
2022-08-28T09:32:42.567Z,20.11
2022-08-28T09:33:42.411Z,19.88
2022-08-28T09:34:42.425Z,19.66
2022-08-28T09:35:42.431Z,19.48
2022-08-28T09:36:42.403Z,19.51
2022-08-28T09:37:42.390Z,19.44
2022-08-28T09:38:42.379Z,19.41
2022-08-28T09:39:45.590Z,19.64
2022-08-28T09:40:43.423Z,19.59
2022-08-28T09:41:42.361Z,19.79
2022-08-28T09:42:42.409Z,19.88
2022-08-28T09:43:42.339Z,19.91
2022-08-28T09:44:42.371Z,19.88
2022-08-28T09:45:42.349Z,19.76
2022-08-28T09:46:42.360Z,20.19
2022-08-28T09:47:46.782Z,20.52
2022-08-28T09:48:42.303Z,20.90
2022-08-28T09:49:42.311Z,21.30
2022-08-28T09:50:42.311Z,20.40
2022-08-28T09:51:42.278Z,20.04
2022-08-28T09:52:42.324Z,20.11
2022-08-28T09:53:42.261Z,20.22
2022-08-28T09:54:42.255Z,20.31
2022-08-28T09:55:42.277Z,20.26
2022-08-28T09:56:42.239Z,20.22
2022-08-28T09:57:42.236Z,20.62
2022-08-28T09:58:42.228Z,20.50
2022-08-28T09:59:42.223Z,20.43
2022-08-28T10:00:42.263Z,20.56
2022-08-28T10:01:44.835Z,20.55
2022-08-28T10:02:42.203Z,20.85
2022-08-28T10:03:42.212Z,20.63
2022-08-28T10:04:42.224Z,20.21
2022-08-28T10:05:42.199Z,19.99
2022-08-28T10:06:43.699Z,19.58
2022-08-28T10:07:42.159Z,19.91
2022-08-28T10:08:42.143Z,20.13
2022-08-28T10:09:47.872Z,20.31
2022-08-28T10:10:43.150Z,20.24
2022-08-28T10:11:44.387Z,20.59
2022-08-28T10:12:43.119Z,20.70
2022-08-28T10:13:42.104Z,20.87
2022-08-28T10:14:42.101Z,20.88
2022-08-28T10:15:43.560Z,20.80
2022-08-28T10:16:43.085Z,20.31
2022-08-28T10:17:42.088Z,20.69
2022-08-28T10:18:42.071Z,20.72
2022-08-28T10:19:42.067Z,20.81
2022-08-28T10:20:42.087Z,20.66
2022-08-28T10:21:42.048Z,20.70
2022-08-28T10:22:42.054Z,20.92
2022-08-28T10:23:42.122Z,20.95
2022-08-28T10:24:42.031Z,20.84
2022-08-28T10:25:42.042Z,20.70
2022-08-28T10:26:41.997Z,20.65
2022-08-28T10:27:43.017Z,20.59
2022-08-28T10:28:41.996Z,20.66
2022-08-28T10:29:41.992Z,20.72
2022-08-28T10:30:42.033Z,20.88
2022-08-28T10:31:41.980Z,21.17
2022-08-28T10:32:41.979Z,21.51
2022-08-28T10:33:41.953Z,21.06
2022-08-28T10:34:41.963Z,20.78
2022-08-28T10:35:41.976Z,20.75
2022-08-28T10:36:41.936Z,20.67
2022-08-28T10:37:41.927Z,21.12
2022-08-28T10:38:41.921Z,21.62
2022-08-28T10:39:41.928Z,21.69
2022-08-28T10:40:42.148Z,21.35
2022-08-28T10:41:42.519Z,21.24
2022-08-28T10:42:41.907Z,20.96
2022-08-28T10:43:41.952Z,21.09
2022-08-28T10:44:41.880Z,21.17
2022-08-28T10:45:41.883Z,21.22
2022-08-28T10:46:41.911Z,21.30
2022-08-28T10:47:41.850Z,21.70
2022-08-28T10:48:41.919Z,21.79
2022-08-28T10:49:41.853Z,21.48
2022-08-28T10:50:41.859Z,21.39
2022-08-28T10:51:44.276Z,21.29
2022-08-28T10:52:42.813Z,21.40
2022-08-28T10:53:41.799Z,21.45
2022-08-28T10:54:41.793Z,21.20
2022-08-28T10:55:41.818Z,20.95
2022-08-28T10:56:41.785Z,21.03
2022-08-28T10:57:41.777Z,21.21
2022-08-28T10:58:41.879Z,20.97
2022-08-28T10:59:42.387Z,21.22
2022-08-28T11:00:41.785Z,21.05
2022-08-28T11:01:41.890Z,21.03
2022-08-28T11:02:41.781Z,20.95
2022-08-28T11:03:41.730Z,20.96
2022-08-28T11:04:41.723Z,21.27
2022-08-28T11:05:49.432Z,21.35
2022-08-28T11:06:42.704Z,21.62
2022-08-28T11:07:41.702Z,21.60
2022-08-28T11:08:41.687Z,21.64
2022-08-28T11:09:41.690Z,21.48
2022-08-28T11:10:41.711Z,21.62
2022-08-28T11:11:41.668Z,21.76
2022-08-28T11:12:41.661Z,21.48
2022-08-28T11:13:41.649Z,21.18
2022-08-28T11:14:47.717Z,21.11
2022-08-28T11:15:42.662Z,21.24
2022-08-28T11:16:41.676Z,21.21
2022-08-28T11:17:41.626Z,21.20
2022-08-28T11:18:41.621Z,21.42
2022-08-28T11:19:44.505Z,21.55
2022-08-28T11:20:42.629Z,21.39
2022-08-28T11:21:41.611Z,21.20
2022-08-28T11:22:41.610Z,21.36
2022-08-28T11:23:41.580Z,21.21
2022-08-28T11:24:43.811Z,21.03
2022-08-28T11:25:41.588Z,20.97
2022-08-28T11:26:41.562Z,21.06
2022-08-28T11:27:41.555Z,21.22
2022-08-28T11:28:42.199Z,21.73
2022-08-28T11:29:41.531Z,22.14
2022-08-28T11:30:41.685Z,21.57
2022-08-28T11:31:41.518Z,21.48
2022-08-28T11:32:47.228Z,21.30
2022-08-28T11:33:42.501Z,21.50
2022-08-28T11:34:41.491Z,21.30
2022-08-28T11:35:41.523Z,21.29
2022-08-28T11:36:41.481Z,21.39
2022-08-28T11:37:41.473Z,21.58
2022-08-28T11:38:41.466Z,21.60
2022-08-28T11:39:41.454Z,21.83
2022-08-28T11:40:41.520Z,22.26
2022-08-28T11:41:41.466Z,22.43
2022-08-28T11:42:41.450Z,22.38
2022-08-28T11:43:41.423Z,22.07
2022-08-28T11:44:41.424Z,21.80
2022-08-28T11:45:41.476Z,21.95
2022-08-28T11:46:41.463Z,21.95
2022-08-28T11:47:41.396Z,21.73
2022-08-28T11:48:41.382Z,21.70
2022-08-28T11:49:41.379Z,22.25
2022-08-28T11:50:41.380Z,22.54
2022-08-28T11:51:41.391Z,21.95
2022-08-28T11:52:41.380Z,22.22
2022-08-28T11:53:41.365Z,21.79
2022-08-28T11:54:41.350Z,21.85
2022-08-28T11:55:41.336Z,22.13
2022-08-28T11:56:41.357Z,22.30
2022-08-28T11:57:41.322Z,22.25
2022-08-28T11:58:41.316Z,22.15
2022-08-28T11:59:41.305Z,22.11
2022-08-28T12:00:41.315Z,22.14
2022-08-28T12:01:41.322Z,22.20
2022-08-28T12:02:41.352Z,22.35
2022-08-28T12:03:41.273Z,22.50
2022-08-28T12:04:41.314Z,22.78
2022-08-28T12:05:41.270Z,22.85
2022-08-28T12:06:41.272Z,23.32
2022-08-28T12:07:41.244Z,23.47
2022-08-28T12:08:41.238Z,23.47
2022-08-28T12:09:41.335Z,23.69
2022-08-28T12:10:41.218Z,23.83
2022-08-28T12:11:41.300Z,23.56
2022-08-28T12:12:41.207Z,23.18
2022-08-28T12:13:41.199Z,22.81
2022-08-28T12:14:41.783Z,22.73
2022-08-28T12:15:41.243Z,22.38
2022-08-28T12:16:41.203Z,22.14
2022-08-28T12:17:41.164Z,22.23
2022-08-28T12:18:41.159Z,22.59
2022-08-28T12:19:52.095Z,22.54
2022-08-28T12:20:42.146Z,22.81
2022-08-28T12:21:41.159Z,22.80
2022-08-28T12:22:41.124Z,22.76
2022-08-28T12:23:41.133Z,22.87
2022-08-28T12:24:41.121Z,22.75
2022-08-28T12:25:41.101Z,22.51
2022-08-28T12:26:41.123Z,22.33
2022-08-28T12:27:41.088Z,22.20
2022-08-28T12:28:41.085Z,22.36
2022-08-28T12:29:41.074Z,22.55
2022-08-28T12:30:41.147Z,22.41
2022-08-28T12:31:41.088Z,22.44
2022-08-28T12:32:41.055Z,22.38
2022-08-28T12:33:41.049Z,22.50
2022-08-28T12:34:41.776Z,22.55
2022-08-28T12:35:43.674Z,22.75
2022-08-28T12:36:41.071Z,22.68
2022-08-28T12:37:52.480Z,22.81
2022-08-28T12:38:41.997Z,22.69
2022-08-28T12:39:42.003Z,22.70
2022-08-28T12:40:41.065Z,22.68
2022-08-28T12:41:41.014Z,22.62
2022-08-28T12:42:40.977Z,22.63
2022-08-28T12:43:46.400Z,22.26
2022-08-28T12:44:42.774Z,22.36
2022-08-28T12:45:40.994Z,22.38
2022-08-28T12:46:40.975Z,22.30
2022-08-28T12:47:40.974Z,22.55
2022-08-28T12:48:40.941Z,22.55
2022-08-28T12:49:40.931Z,22.80
2022-08-28T12:50:40.926Z,22.80
2022-08-28T12:51:40.935Z,22.96
2022-08-28T12:52:40.904Z,23.25